Time;durP1;ratioP1;P1;durP2;ratioP2;P2;SDS_P1;SDS_P2;PMS_P1;PMS_P2;Temp;Humidity;BMP_temperature;BMP_pressure;BME280_temperature;BME280_humidity;BME280_pressure;Samples;Min_cycle;Max_cycle;Signal;HPM_P1;HPM_P2
2023/01/17 00:01:41;;;;;;;6.63;4.07;;;;;;;;;;5043605;28;20100;-73
2023/01/17 00:09:55;;;;;;;5.25;2.70;;;;;;;;;;5027393;28;20057;-73
2023/01/17 00:12:22;;;;;;;8.60;3.67;;;;;;;;;;5037050;28;20044;-73
2023/01/17 00:14:48;;;;;;;5.55;2.20;;;;;;;;;;5038079;28;20134;-73
2023/01/17 00:17:13;;;;;;;3.72;2.53;;;;;;;;;;5038331;28;20434;-74
2023/01/17 01:34:03;;;;;;;3.78;1.88;;;;;;;;;;5043942;28;20037;-73
2023/01/17 01:36:28;;;;;;;6.30;1.98;;;;;;;;;;5045466;28;20041;-73
2023/01/17 01:38:53;;;;;;;4.55;2.78;;;;;;;;;;5044827;28;20055;-72
2023/01/17 01:41:19;;;;;;;4.45;1.83;;;;;;;;;;5047274;28;20028;-73
2023/01/17 01:43:50;;;;;;;3.67;1.63;;;;;;;;;;5048377;28;20467;-73
2023/01/17 01:46:19;;;;;;;9.35;2.97;;;;;;;;;;5038998;28;20044;-74
2023/01/17 01:48:58;;;;;;;4.20;1.65;;;;;;;;;;5052156;28;20043;-73
2023/01/17 01:51:36;;;;;;;7.72;2.15;;;;;;;;;;5013399;28;20122;-73
2023/01/17 01:54:06;;;;;;;5.95;1.27;;;;;;;;;;5047365;28;20061;-73
2023/01/17 01:56:32;;;;;;;15.57;1.98;;;;;;;;;;5050281;28;20052;-72
2023/01/17 01:58:59;;;;;;;3.20;2.25;;;;;;;;;;5044924;28;20033;-73
2023/01/17 02:01:24;;;;;;;3.45;1.75;;;;;;;;;;5037170;28;20095;-73
2023/01/17 02:03:50;;;;;;;4.10;1.90;;;;;;;;;;5035492;28;20127;-73
2023/01/17 02:06:24;;;;;;;10.23;1.92;;;;;;;;;;5048891;28;20028;-72
2023/01/17 02:08:49;;;;;;;2.38;1.40;;;;;;;;;;5039690;28;20500;-73
2023/01/17 02:11:14;;;;;;;3.92;1.77;;;;;;;;;;5046016;28;20112;-73
2023/01/17 02:13:40;;;;;;;3.08;1.40;;;;;;;;;;5051436;28;20045;-73
2023/01/17 02:16:14;;;;;;;3.17;1.40;;;;;;;;;;5043657;28;20056;-73
2023/01/17 02:19:21;;;;;;;3.05;1.50;;;;;;;;;;5031727;28;20086;-73
2023/01/17 02:22:01;;;;;;;3.38;1.38;;;;;;;;;;5008254;28;20136;-73
2023/01/17 02:24:51;;;;;;;2.90;1.67;;;;;;;;;;5046333;28;20029;-74
2023/01/17 02:27:56;;;;;;;2.92;1.65;;;;;;;;;;5046378;28;20107;-73
2023/01/17 02:30:46;;;;;;;4.80;1.50;;;;;;;;;;5038801;28;20035;-73
2023/01/17 02:33:26;;;;;;;4.32;1.40;;;;;;;;;;5033455;28;20064;-72
2023/01/17 02:36:10;;;;;;;4.95;1.63;;;;;;;;;;5039115;28;20025;-72
2023/01/17 02:38:37;;;;;;;4.13;1.42;;;;;;;;;;5044854;28;21272;-72
2023/01/17 02:41:06;;;;;;;5.10;1.85;;;;;;;;;;5028328;28;20043;-72
2023/01/17 02:43:33;;;;;;;2.55;1.60;;;;;;;;;;5049199;28;20041;-72
2023/01/17 02:45:58;;;;;;;3.25;1.55;;;;;;;;;;5047323;28;20048;-73
2023/01/17 02:48:27;;;;;;;1.80;1.17;;;;;;;;;;5045271;28;20022;-73
2023/01/17 02:51:01;;;;;;;4.18;1.70;;;;;;;;;;5035745;28;20049;-72
2023/01/17 02:53:41;;;;;;;3.53;1.27;;;;;;;;;;5039121;28;20045;-73
2023/01/17 02:56:21;;;;;;;4.85;1.92;;;;;;;;;;5025486;28;20045;-72
2023/01/17 02:58:49;;;;;;;1.67;1.05;;;;;;;;;;5024008;28;20045;-72
2023/01/17 03:01:33;;;;;;;3.03;1.58;;;;;;;;;;5041421;28;20037;-72
2023/01/17 03:04:08;;;;;;;1.30;0.88;;;;;;;;;;5046528;28;20503;-73
2023/01/17 03:06:42;;;;;;;2.50;1.35;;;;;;;;;;5048636;28;20045;-72
2023/01/17 03:09:08;;;;;;;4.60;1.17;;;;;;;;;;5050474;28;20048;-72
2023/01/17 03:11:34;;;;;;;3.45;2.03;;;;;;;;;;5033149;28;20140;-72
2023/01/17 03:13:59;;;;;;;2.00;1.33;;;;;;;;;;5037903;28;20034;-73
2023/01/17 03:16:27;;;;;;;2.42;1.42;;;;;;;;;;5039135;28;20037;-73
2023/01/17 03:18:55;;;;;;;4.18;1.65;;;;;;;;;;5038507;28;20481;-72
2023/01/17 03:21:21;;;;;;;7.68;2.13;;;;;;;;;;5044428;28;20032;-72
2023/01/17 03:23:47;;;;;;;2.58;1.42;;;;;;;;;;5042880;28;20044;-73
2023/01/17 03:26:12;;;;;;;5.00;1.25;;;;;;;;;;5039175;28;20030;-72
2023/01/17 03:28:38;;;;;;;6.18;1.52;;;;;;;;;;5037206;28;20036;-73
2023/01/17 03:31:03;;;;;;;4.07;1.33;;;;;;;;;;5045588;28;20080;-72
2023/01/17 03:33:29;;;;;;;2.13;1.05;;;;;;;;;;5045339;28;20154;-72
2023/01/17 03:35:56;;;;;;;2.17;1.35;;;;;;;;;;5041663;28;20055;-73
2023/01/17 03:38:24;;;;;;;2.38;1.40;;;;;;;;;;5044178;28;20416;-73
2023/01/17 03:40:49;;;;;;;10.80;2.05;;;;;;;;;;5040684;28;20481;-72
2023/01/17 03:43:14;;;;;;;4.88;1.20;;;;;;;;;;5043805;28;20035;-72
2023/01/17 03:45:40;;;;;;;1.85;1.13;;;;;;;;;;5043767;28;20045;-73
2023/01/17 03:48:05;;;;;;;1.88;1.23;;;;;;;;;;5050331;28;20036;-72
2023/01/17 03:50:30;;;;;;;3.88;2.03;;;;;;;;;;5051694;28;20075;-73
2023/01/17 03:52:56;;;;;;;3.55;1.67;;;;;;;;;;5048507;28;20045;-73
2023/01/17 03:55:21;;;;;;;5.90;1.30;;;;;;;;;;5045150;28;20033;-73
2023/01/17 03:57:47;;;;;;;2.83;1.00;;;;;;;;;;5049954;28;20028;-72
2023/01/17 04:00:12;;;;;;;4.28;1.75;;;;;;;;;;5043644;28;20041;-72
2023/01/17 04:02:38;;;;;;;2.63;1.00;;;;;;;;;;5038589;28;20041;-72
2023/01/17 04:05:04;;;;;;;3.33;1.38;;;;;;;;;;5036672;28;20113;-73
2023/01/17 04:07:29;;;;;;;2.55;1.45;;;;;;;;;;5041251;28;20037;-72
2023/01/17 04:09:54;;;;;;;2.75;1.50;;;;;;;;;;5039947;28;20038;-73
2023/01/17 04:12:20;;;;;;;9.20;1.50;;;;;;;;;;5041348;28;20025;-73
2023/01/17 04:14:46;;;;;;;2.20;1.63;;;;;;;;;;5038680;28;20065;-73
2023/01/17 04:17:13;;;;;;;3.33;1.20;;;;;;;;;;5042854;28;20044;-72
2023/01/17 04:19:38;;;;;;;2.60;1.35;;;;;;;;;;5038335;28;20071;-73
2023/01/17 04:22:04;;;;;;;3.53;1.65;;;;;;;;;;5039643;28;20120;-73
2023/01/17 04:24:29;;;;;;;1.65;1.05;;;;;;;;;;5039391;28;20033;-72
2023/01/17 04:26:54;;;;;;;3.60;1.50;;;;;;;;;;5043483;28;20490;-73
2023/01/17 04:29:20;;;;;;;3.58;1.40;;;;;;;;;;5036308;28;20038;-76
2023/01/17 04:31:47;;;;;;;11.20;2.10;;;;;;;;;;5032820;28;20046;-72
2023/01/17 04:34:12;;;;;;;1.65;1.05;;;;;;;;;;5037132;28;20032;-72
2023/01/17 04:36:37;;;;;;;1.20;0.77;;;;;;;;;;5037881;28;20045;-72
2023/01/17 04:39:03;;;;;;;4.57;1.42;;;;;;;;;;5034681;28;20529;-72
2023/01/17 04:41:28;;;;;;;2.33;0.73;;;;;;;;;;5037517;28;20033;-72
2023/01/17 04:43:54;;;;;;;2.72;0.90;;;;;;;;;;5042597;28;20159;-72
2023/01/17 04:46:19;;;;;;;4.05;1.88;;;;;;;;;;5041587;28;20131;-72
2023/01/17 04:48:44;;;;;;;3.15;1.08;;;;;;;;;;5047867;28;20037;-72
2023/01/17 04:51:10;;;;;;;0.82;0.70;;;;;;;;;;5051806;28;20045;-72
2023/01/17 04:53:35;;;;;;;4.35;0.98;;;;;;;;;;5050625;28;20522;-72
2023/01/17 04:56:01;;;;;;;2.13;0.98;;;;;;;;;;5046072;28;20464;-73
2023/01/17 04:58:27;;;;;;;6.72;1.33;;;;;;;;;;5043623;28;20136;-73
2023/01/17 05:00:53;;;;;;;6.30;1.00;;;;;;;;;;5036454;28;20038;-72
2023/01/17 05:03:20;;;;;;;0.98;0.65;;;;;;;;;;5040976;28;20052;-72
2023/01/17 05:05:45;;;;;;;2.40;0.77;;;;;;;;;;5035908;28;20454;-73
2023/01/17 05:08:11;;;;;;;8.73;1.48;;;;;;;;;;5053287;28;20120;-72
2023/01/17 05:10:36;;;;;;;1.38;1.13;;;;;;;;;;5043726;28;20500;-74
2023/01/17 05:13:02;;;;;;;1.35;0.70;;;;;;;;;;5044142;28;20037;-73
2023/01/17 05:15:27;;;;;;;1.48;0.85;;;;;;;;;;5042363;28;20034;-73
2023/01/17 05:17:53;;;;;;;7.22;1.27;;;;;;;;;;5043357;28;20110;-72
2023/01/17 05:20:20;;;;;;;2.60;1.48;;;;;;;;;;5042932;28;20489;-72
2023/01/17 05:22:54;;;;;;;1.75;0.80;;;;;;;;;;5051385;28;20404;-72
2023/01/17 05:25:24;;;;;;;1.30;0.90;;;;;;;;;;5047331;28;20037;-72
2023/01/17 05:27:50;;;;;;;6.72;0.95;;;;;;;;;;5048732;28;20048;-72
2023/01/17 05:30:16;;;;;;;3.92;1.85;;;;;;;;;;5047906;28;20025;-72
2023/01/17 05:32:53;;;;;;;1.33;0.98;;;;;;;;;;5053653;28;20041;-72
2023/01/17 05:35:33;;;;;;;1.48;0.95;;;;;;;;;;5050715;28;20064;-72
2023/01/17 05:37:58;;;;;;;0.88;0.77;;;;;;;;;;5040596;28;20041;-72
2023/01/17 05:40:27;;;;;;;0.57;0.57;;;;;;;;;;5041238;28;20041;-72
2023/01/17 05:42:53;;;;;;;4.38;0.82;;;;;;;;;;5047421;28;20439;-72
2023/01/17 05:45:20;;;;;;;5.03;1.23;;;;;;;;;;5041422;28;20033;-72
2023/01/17 05:47:47;;;;;;;2.08;0.82;;;;;;;;;;5040813;28;20500;-72
2023/01/17 05:50:19;;;;;;;2.28;0.98;;;;;;;;;;5046296;28;20089;-72
2023/01/17 05:52:49;;;;;;;1.65;0.82;;;;;;;;;;5045248;28;20034;-72
2023/01/17 05:55:15;;;;;;;0.60;0.60;;;;;;;;;;5052639;28;20048;-72
2023/01/17 05:57:40;;;;;;;2.15;1.42;;;;;;;;;;5052630;28;20545;-72
2023/01/17 06:00:07;;;;;;;0.85;0.70;;;;;;;;;;5051399;28;20040;-73
2023/01/17 06:02:32;;;;;;;1.95;1.05;;;;;;;;;;5045551;28;20063;-72
2023/01/17 06:04:57;;;;;;;1.75;1.10;;;;;;;;;;5051271;28;20469;-72
2023/01/17 06:07:23;;;;;;;3.40;1.02;;;;;;;;;;5044941;28;20044;-73
2023/01/17 06:09:48;;;;;;;13.27;1.38;;;;;;;;;;5043133;28;20458;-72
2023/01/17 06:12:13;;;;;;;2.03;1.17;;;;;;;;;;5045763;28;20055;-72
2023/01/17 06:14:39;;;;;;;8.50;0.90;;;;;;;;;;5037608;28;20041;-72
2023/01/17 06:17:04;;;;;;;1.65;1.48;;;;;;;;;;5041854;28;20029;-72
2023/01/17 06:19:29;;;;;;;6.72;0.93;;;;;;;;;;5050528;28;20096;-72
2023/01/17 06:21:55;;;;;;;1.83;0.85;;;;;;;;;;5049248;28;20531;-72
2023/01/17 06:24:20;;;;;;;1.45;1.00;;;;;;;;;;5054182;28;20041;-73
2023/01/17 06:26:45;;;;;;;3.38;1.23;;;;;;;;;;5041606;28;20079;-72
2023/01/17 06:29:11;;;;;;;5.10;1.48;;;;;;;;;;5041037;28;20033;-72
2023/01/17 06:31:36;;;;;;;5.53;1.33;;;;;;;;;;5039816;28;20456;-72
2023/01/17 06:34:03;;;;;;;3.33;1.92;;;;;;;;;;5039804;28;20060;-73
2023/01/17 06:36:28;;;;;;;0.63;0.60;;;;;;;;;;5038469;28;20069;-73
2023/01/17 06:38:54;;;;;;;4.60;1.67;;;;;;;;;;5035143;28;20099;-72
2023/01/17 06:41:19;;;;;;;6.28;1.52;;;;;;;;;;5038600;28;20411;-72
2023/01/17 06:43:45;;;;;;;1.17;1.02;;;;;;;;;;5042352;28;20041;-72
2023/01/17 06:46:10;;;;;;;5.85;1.17;;;;;;;;;;5038832;28;20041;-72
2023/01/17 06:48:35;;;;;;;0.93;0.68;;;;;;;;;;5036414;28;20029;-72
2023/01/17 06:51:01;;;;;;;2.50;1.00;;;;;;;;;;5043368;28;20392;-73
2023/01/17 06:53:26;;;;;;;3.58;1.70;;;;;;;;;;5041599;28;20120;-72
2023/01/17 06:55:56;;;;;;;2.25;1.45;;;;;;;;;;5049723;28;20374;-72
2023/01/17 06:58:21;;;;;;;2.28;0.88;;;;;;;;;;5044551;28;20044;-73
2023/01/17 07:00:46;;;;;;;0.82;0.60;;;;;;;;;;5049788;28;20037;-72
2023/01/17 07:03:20;;;;;;;0.88;0.80;;;;;;;;;;5039583;28;20457;-72
2023/01/17 07:05:46;;;;;;;5.45;0.82;;;;;;;;;;5053416;28;20119;-72
2023/01/17 07:08:11;;;;;;;3.42;0.75;;;;;;;;;;5052775;28;20433;-72
2023/01/17 07:10:37;;;;;;;2.92;1.25;;;;;;;;;;5051339;28;20041;-72
2023/01/17 07:13:02;;;;;;;2.28;1.23;;;;;;;;;;5036641;28;20033;-72
2023/01/17 07:15:28;;;;;;;4.25;1.92;;;;;;;;;;5045983;28;20037;-72
2023/01/17 07:17:53;;;;;;;1.83;1.17;;;;;;;;;;5039234;28;21240;-72
2023/01/17 07:20:18;;;;;;;4.15;0.85;;;;;;;;;;5036923;28;20045;-72
2023/01/17 07:22:44;;;;;;;0.80;0.60;;;;;;;;;;5041402;28;20032;-72
2023/01/17 07:25:09;;;;;;;1.75;0.90;;;;;;;;;;5038502;28;20029;-72
2023/01/17 07:27:35;;;;;;;0.75;0.68;;;;;;;;;;5039126;28;20095;-72
2023/01/17 07:30:00;;;;;;;1.45;1.05;;;;;;;;;;5033143;28;20382;-73
2023/01/17 07:32:26;;;;;;;0.88;0.63;;;;;;;;;;5033432;28;20034;-72
2023/01/17 07:34:52;;;;;;;1.63;0.80;;;;;;;;;;5033160;28;20041;-72
2023/01/17 07:37:18;;;;;;;2.13;0.85;;;;;;;;;;5044622;28;20072;-72
2023/01/17 07:39:44;;;;;;;2.38;1.15;;;;;;;;;;5039118;28;20029;-72
2023/01/17 07:42:09;;;;;;;1.65;1.08;;;;;;;;;;5037035;28;20482;-72
2023/01/17 07:44:35;;;;;;;1.52;1.05;;;;;;;;;;5033225;28;20029;-72
2023/01/17 07:47:00;;;;;;;1.13;1.02;;;;;;;;;;5033753;28;20495;-73
2023/01/17 07:49:26;;;;;;;2.83;1.33;;;;;;;;;;5034557;28;20043;-73
2023/01/17 07:51:51;;;;;;;4.55;1.10;;;;;;;;;;5032906;28;20119;-72
2023/01/17 07:54:16;;;;;;;1.88;0.82;;;;;;;;;;5043810;28;20045;-73
2023/01/17 07:56:45;;;;;;;3.00;0.85;;;;;;;;;;5046113;28;20077;-72
2023/01/17 07:59:11;;;;;;;4.57;1.30;;;;;;;;;;5036565;28;20120;-72
2023/01/17 08:01:36;;;;;;;1.50;1.08;;;;;;;;;;5045277;28;20100;-72
2023/01/17 08:04:02;;;;;;;7.28;1.25;;;;;;;;;;5039118;28;20037;-72
2023/01/17 08:06:28;;;;;;;2.05;1.25;;;;;;;;;;5033978;28;20136;-72
2023/01/17 08:08:55;;;;;;;0.68;0.47;;;;;;;;;;5043601;28;20021;-72
2023/01/17 08:11:21;;;;;;;1.35;0.90;;;;;;;;;;5039498;28;20041;-72
2023/01/17 08:13:46;;;;;;;6.10;1.02;;;;;;;;;;5036391;28;20037;-72
2023/01/17 08:16:12;;;;;;;12.55;1.63;;;;;;;;;;5032244;28;20036;-72
2023/01/17 08:18:38;;;;;;;0.77;0.75;;;;;;;;;;5032105;28;20045;-72
2023/01/17 08:21:06;;;;;;;2.50;0.90;;;;;;;;;;5033991;28;20052;-72
2023/01/17 08:23:31;;;;;;;2.17;0.60;;;;;;;;;;5022222;28;20086;-72
2023/01/17 08:26:00;;;;;;;4.45;1.60;;;;;;;;;;5036945;28;20041;-72
2023/01/17 08:28:26;;;;;;;1.65;0.93;;;;;;;;;;5038130;28;20041;-75
2023/01/17 08:30:51;;;;;;;1.98;0.77;;;;;;;;;;5037439;28;20469;-72
2023/01/17 08:33:17;;;;;;;2.20;1.13;;;;;;;;;;5035695;28;20044;-72
2023/01/17 08:35:52;;;;;;;4.47;1.30;;;;;;;;;;5037210;28;20080;-72
2023/01/17 08:38:18;;;;;;;1.80;0.70;;;;;;;;;;5036333;28;20037;-73
2023/01/17 08:40:43;;;;;;;2.15;0.90;;;;;;;;;;5055072;28;20048;-73
2023/01/17 08:43:08;;;;;;;0.98;0.73;;;;;;;;;;5041508;28;20025;-72
2023/01/17 08:45:34;;;;;;;1.98;1.35;;;;;;;;;;5041600;28;20145;-72
2023/01/17 08:47:59;;;;;;;1.70;0.85;;;;;;;;;;5044894;28;20044;-73
2023/01/17 08:50:25;;;;;;;1.45;0.85;;;;;;;;;;5047006;28;20045;-72
2023/01/17 08:52:57;;;;;;;5.22;1.10;;;;;;;;;;5045878;28;20063;-73
2023/01/17 08:55:22;;;;;;;1.10;0.70;;;;;;;;;;5031632;28;20029;-73
2023/01/17 08:57:48;;;;;;;1.92;0.95;;;;;;;;;;5044608;28;20056;-73
2023/01/17 09:00:13;;;;;;;4.57;1.35;;;;;;;;;;5046017;28;20040;-72
2023/01/17 09:02:39;;;;;;;3.42;2.13;;;;;;;;;;5041699;28;20396;-72
2023/01/17 09:05:05;;;;;;;5.97;1.05;;;;;;;;;;5045163;28;20033;-73
2023/01/17 09:07:30;;;;;;;2.60;1.55;;;;;;;;;;5038932;28;20048;-72
2023/01/17 09:09:55;;;;;;;7.20;1.63;;;;;;;;;;5042516;28;20056;-73
2023/01/17 09:12:21;;;;;;;4.50;2.25;;;;;;;;;;5040163;28;20029;-73
2023/01/17 09:14:47;;;;;;;14.10;2.00;;;;;;;;;;5037614;28;20507;-73
2023/01/17 09:17:13;;;;;;;2.70;1.38;;;;;;;;;;5045768;28;20048;-75
2023/01/17 09:19:42;;;;;;;10.38;1.98;;;;;;;;;;5046691;28;20369;-72
2023/01/17 09:22:08;;;;;;;3.13;1.30;;;;;;;;;;5046533;28;20128;-74
2023/01/17 09:24:34;;;;;;;1.80;1.10;;;;;;;;;;5039067;28;20055;-72
2023/01/17 09:26:59;;;;;;;3.47;1.55;;;;;;;;;;5045634;28;20033;-73
2023/01/17 09:29:25;;;;;;;5.75;2.13;;;;;;;;;;5040028;28;20119;-73
2023/01/17 09:31:50;;;;;;;11.23;1.83;;;;;;;;;;5039738;28;20045;-74
2023/01/17 09:34:17;;;;;;;11.85;2.33;;;;;;;;;;5038717;28;20025;-73
2023/01/17 09:36:43;;;;;;;16.40;2.17;;;;;;;;;;5036109;28;20038;-72
2023/01/17 09:39:10;;;;;;;4.25;1.95;;;;;;;;;;5046029;28;20045;-74
2023/01/17 09:41:44;;;;;;;12.88;2.30;;;;;;;;;;5051826;28;20033;-72
2023/01/17 09:44:26;;;;;;;14.48;2.33;;;;;;;;;;5041560;28;20484;-72
2023/01/17 09:46:58;;;;;;;7.97;2.90;;;;;;;;;;5030414;28;20025;-72
2023/01/17 09:49:38;;;;;;;5.03;2.22;;;;;;;;;;5036614;28;20034;-73
2023/01/17 09:52:06;;;;;;;6.47;2.67;;;;;;;;;;5039041;28;20493;-72
2023/01/17 09:54:37;;;;;;;3.22;1.70;;;;;;;;;;5051154;28;20041;-72
2023/01/17 09:57:24;;;;;;;18.38;2.90;;;;;;;;;;5051850;28;20057;-73
2023/01/17 09:59:55;;;;;;;6.90;2.35;;;;;;;;;;5037378;28;20045;-72
2023/01/17 10:02:30;;;;;;;15.63;2.47;;;;;;;;;;5041287;28;20845;-74
2023/01/17 10:05:04;;;;;;;8.00;3.65;;;;;;;;;;5041986;28;20503;-72
2023/01/17 10:07:32;;;;;;;;;;;;;;;;;;5050372;28;20116;-73
2023/01/17 10:10:11;;;;;;;7.32;2.08;;;;;;;;;;5067743;28;19920;-72
2023/01/17 10:12:55;;;;;;;7.00;2.72;;;;;;;;;;5047738;28;20064;-73
2023/01/17 10:15:43;;;;;;;5.18;2.28;;;;;;;;;;5034038;28;20489;-73
2023/01/17 10:18:31;;;;;;;10.15;2.95;;;;;;;;;;5037132;28;20120;-73
2023/01/17 10:21:20;;;;;;;8.32;3.70;;;;;;;;;;5040656;28;20472;-73
2023/01/17 10:24:15;;;;;;;10.60;3.45;;;;;;;;;;5036204;28;20040;-73
2023/01/17 10:26:42;;;;;;;18.88;4.35;;;;;;;;;;5049874;28;20080;-73
2023/01/17 10:29:15;;;;;;;7.25;3.17;;;;;;;;;;5042215;28;20121;-73
2023/01/17 10:31:45;;;;;;;11.03;3.20;;;;;;;;;;5041338;28;20041;-74
2023/01/17 10:34:43;;;;;;;10.82;3.85;;;;;;;;;;5043611;28;20116;-73
2023/01/17 10:37:15;;;;;;;6.18;2.15;;;;;;;;;;5050192;28;20041;-73
2023/01/17 10:39:42;;;;;;;6.53;2.50;;;;;;;;;;5041107;28;20419;-73
2023/01/17 10:42:33;;;;;;;9.63;3.25;;;;;;;;;;5042741;28;20052;-73
2023/01/17 10:45:05;;;;;;;13.13;3.47;;;;;;;;;;5032784;28;20091;-73
2023/01/17 10:47:33;;;;;;;10.30;3.22;;;;;;;;;;5037960;28;20046;-73
2023/01/17 10:50:03;;;;;;;6.55;3.20;;;;;;;;;;5033342;28;20049;-73
2023/01/17 10:52:59;;;;;;;6.35;3.00;;;;;;;;;;5039740;28;20041;-73
2023/01/17 10:55:34;;;;;;;13.23;3.83;;;;;;;;;;5050854;28;20128;-74
2023/01/17 10:58:00;;;;;;;5.93;2.60;;;;;;;;;;5051916;28;20480;-73
2023/01/17 11:00:38;;;;;;;13.23;3.10;;;;;;;;;;5039518;28;20061;-73
2023/01/17 11:03:05;;;;;;;9.38;2.30;;;;;;;;;;5048093;28;20040;-74
2023/01/17 11:05:32;;;;;;;8.93;2.88;;;;;;;;;;5043563;28;20048;-76
2023/01/17 11:07:58;;;;;;;3.65;2.17;;;;;;;;;;5040777;28;20389;-73
2023/01/17 11:10:36;;;;;;;7.00;2.08;;;;;;;;;;5038705;28;20029;-74
2023/01/17 11:13:18;;;;;;;5.18;2.25;;;;;;;;;;5035867;28;20076;-74
2023/01/17 11:15:47;;;;;;;8.45;2.03;;;;;;;;;;5034492;28;20384;-75
2023/01/17 11:18:18;;;;;;;4.97;1.90;;;;;;;;;;5044994;28;20051;-73
2023/01/17 11:20:43;;;;;;;7.60;2.10;;;;;;;;;;5040440;28;20030;-74
2023/01/17 11:23:16;;;;;;;5.85;1.58;;;;;;;;;;5047938;28;20457;-73
2023/01/17 11:26:04;;;;;;;4.00;1.80;;;;;;;;;;5048706;28;20060;-73
2023/01/17 11:28:38;;;;;;;4.05;1.85;;;;;;;;;;5021904;28;20477;-73
2023/01/17 11:31:21;;;;;;;6.15;2.00;;;;;;;;;;5036053;28;20575;-74
2023/01/17 11:33:54;;;;;;;10.85;2.20;;;;;;;;;;5044753;28;20087;-73
2023/01/17 11:36:27;;;;;;;5.30;1.48;;;;;;;;;;5034258;28;20052;-73
2023/01/17 11:39:03;;;;;;;12.38;1.80;;;;;;;;;;5047143;28;20041;-73
2023/01/17 11:41:39;;;;;;;4.18;1.30;;;;;;;;;;5041905;28;20366;-73
2023/01/17 11:44:32;;;;;;;3.38;1.80;;;;;;;;;;5047354;28;20731;-73
2023/01/17 11:47:07;;;;;;;4.93;1.90;;;;;;;;;;5047244;28;20059;-73
2023/01/17 11:49:33;;;;;;;3.60;1.77;;;;;;;;;;5033376;28;20040;-73
2023/01/17 11:51:58;;;;;;;5.60;1.42;;;;;;;;;;5049934;28;20037;-73
2023/01/17 11:54:32;;;;;;;7.10;1.60;;;;;;;;;;5040361;28;20041;-75
2023/01/17 11:56:59;;;;;;;3.78;1.45;;;;;;;;;;5030933;28;20437;-73
2023/01/17 11:59:32;;;;;;;5.03;1.48;;;;;;;;;;5043089;28;20128;-72
2023/01/17 12:02:22;;;;;;;3.92;1.60;;;;;;;;;;5030250;28;20032;-73
2023/01/17 12:05:26;;;;;;;6.45;1.70;;;;;;;;;;5039268;28;20551;-72
2023/01/17 12:08:03;;;;;;;1.30;0.75;;;;;;;;;;5028220;28;20037;-73
2023/01/17 12:10:34;;;;;;;5.80;1.33;;;;;;;;;;5033039;28;20041;-73
2023/01/17 12:15:52;;;;;;;4.68;0.98;;;;;;;;;;5027958;28;20052;-73
2023/01/17 12:18:26;;;;;;;2.83;1.08;;;;;;;;;;5047259;28;20495;-73
2023/01/17 12:20:55;;;;;;;4.78;1.25;;;;;;;;;;5041935;28;20091;-73
2023/01/17 12:23:39;;;;;;;5.00;1.50;;;;;;;;;;5036209;28;20049;-74
2023/01/17 12:26:32;;;;;;;2.25;1.17;;;;;;;;;;5033456;28;20618;-73
2023/01/17 12:29:32;;;;;;;2.47;1.23;;;;;;;;;;5041245;28;20095;-73
2023/01/17 12:32:25;;;;;;;1.45;0.80;;;;;;;;;;5064096;28;20052;-73
2023/01/17 12:35:17;;;;;;;5.40;1.20;;;;;;;;;;5040670;28;20044;-73
2023/01/17 12:37:44;;;;;;;2.13;1.17;;;;;;;;;;5045669;28;20050;-73
2023/01/17 12:40:28;;;;;;;6.40;1.48;;;;;;;;;;5029476;28;20044;-73
2023/01/17 12:43:07;;;;;;;1.60;0.98;;;;;;;;;;5037261;28;20041;-73
2023/01/17 12:45:38;;;;;;;5.43;1.00;;;;;;;;;;5035742;28;20038;-76
2023/01/17 12:48:16;;;;;;;2.13;1.10;;;;;;;;;;5027510;28;20099;-73
2023/01/17 12:50:56;;;;;;;2.03;1.10;;;;;;;;;;5039679;28;20057;-73
2023/01/17 12:53:40;;;;;;;3.78;1.23;;;;;;;;;;5032980;28;20033;-73
2023/01/17 12:56:29;;;;;;;2.78;1.20;;;;;;;;;;5034509;28;20049;-73
2023/01/17 12:59:10;;;;;;;7.50;1.63;;;;;;;;;;5048437;28;20377;-73
2023/01/17 13:01:38;;;;;;;4.13;1.35;;;;;;;;;;5031257;28;20037;-73
2023/01/17 13:04:16;;;;;;;1.75;1.00;;;;;;;;;;5037772;28;20132;-74
2023/01/17 13:06:57;;;;;;;1.70;1.02;;;;;;;;;;5032165;28;20091;-74
2023/01/17 13:09:22;;;;;;;2.55;1.02;;;;;;;;;;5022387;28;20047;-73
2023/01/17 13:12:00;;;;;;;2.38;1.27;;;;;;;;;;5039820;28;20416;-73
2023/01/17 13:14:26;;;;;;;3.13;1.30;;;;;;;;;;5047473;28;20041;-73
2023/01/17 13:16:57;;;;;;;3.88;1.30;;;;;;;;;;5048156;28;20041;-74
2023/01/17 13:19:22;;;;;;;3.38;1.60;;;;;;;;;;5043934;28;20102;-73
2023/01/17 13:21:49;;;;;;;3.25;1.75;;;;;;;;;;5051105;28;20029;-73
2023/01/17 13:24:25;;;;;;;3.08;1.60;;;;;;;;;;5044896;28;20044;-75
2023/01/17 13:26:54;;;;;;;4.53;1.70;;;;;;;;;;5036945;28;20128;-73
2023/01/17 13:29:55;;;;;;;3.97;1.77;;;;;;;;;;5042320;28;20037;-73
2023/01/17 13:32:46;;;;;;;4.50;2.15;;;;;;;;;;5038833;28;20037;-74
2023/01/17 13:35:58;;;;;;;4.78;2.03;;;;;;;;;;5037336;28;20073;-73
2023/01/17 13:38:41;;;;;;;3.20;1.60;;;;;;;;;;5019260;28;20496;-73
2023/01/17 13:41:21;;;;;;;6.70;2.17;;;;;;;;;;5041037;28;20045;-74
2023/01/17 13:46:50;;;;;;;4.53;1.50;;;;;;;;;;5042074;28;20448;-73
2023/01/17 13:49:27;;;;;;;7.40;1.85;;;;;;;;;;5039207;28;20555;-73
2023/01/17 13:52:09;;;;;;;8.50;1.98;;;;;;;;;;5045523;28;20110;-73
2023/01/17 13:54:44;;;;;;;3.80;1.98;;;;;;;;;;5044347;28;20033;-73
2023/01/17 13:57:24;;;;;;;6.18;1.40;;;;;;;;;;5045005;28;20128;-73
2023/01/17 13:59:53;;;;;;;3.55;1.77;;;;;;;;;;5038307;28;20091;-73
2023/01/17 14:02:31;;;;;;;3.10;1.30;;;;;;;;;;5037363;28;20090;-74
2023/01/17 14:05:16;;;;;;;2.88;1.20;;;;;;;;;;5041902;28;20051;-73
2023/01/17 14:07:57;;;;;;;3.15;1.70;;;;;;;;;;5061698;28;20043;-73
2023/01/17 14:10:36;;;;;;;7.65;1.85;;;;;;;;;;5050658;28;20043;-73
2023/01/17 14:13:03;;;;;;;3.45;1.15;;;;;;;;;;5039943;28;20040;-73
2023/01/17 14:15:31;;;;;;;5.60;1.58;;;;;;;;;;5051372;28;20033;-73
2023/01/17 14:17:58;;;;;;;3.83;1.70;;;;;;;;;;5034484;28;20037;-75
2023/01/17 14:20:24;;;;;;;5.97;1.35;;;;;;;;;;5041988;28;20033;-75
2023/01/17 14:22:52;;;;;;;1.85;0.98;;;;;;;;;;5051309;28;20037;-73
2023/01/17 14:25:28;;;;;;;2.95;1.40;;;;;;;;;;5028208;28;20070;-74
2023/01/17 14:28:03;;;;;;;5.47;1.10;;;;;;;;;;5042546;28;20033;-73
2023/01/17 14:30:35;;;;;;;2.05;1.15;;;;;;;;;;5045208;28;20082;-73
2023/01/17 14:33:00;;;;;;;2.78;1.40;;;;;;;;;;5024734;28;20037;-73
2023/01/17 14:35:39;;;;;;;7.30;1.77;;;;;;;;;;5043809;28;20680;-73
2023/01/17 14:38:19;;;;;;;6.72;2.30;;;;;;;;;;5044512;28;20041;-73
2023/01/17 14:40:54;;;;;;;10.00;2.00;;;;;;;;;;5049475;28;20420;-75
2023/01/17 14:43:22;;;;;;;6.45;2.30;;;;;;;;;;5046578;28;20037;-74
2023/01/17 14:45:48;;;;;;;6.30;3.33;;;;;;;;;;5049767;28;20029;-73
2023/01/17 14:48:18;;;;;;;9.15;2.60;;;;;;;;;;5034308;28;20052;-73
2023/01/17 14:50:46;;;;;;;5.20;2.90;;;;;;;;;;5036483;28;20049;-73
2023/01/17 14:53:11;;;;;;;6.63;2.50;;;;;;;;;;5042266;28;20029;-74
2023/01/17 14:56:01;;;;;;;7.88;3.55;;;;;;;;;;5039456;28;20049;-74
2023/01/17 14:58:31;;;;;;;8.02;3.70;;;;;;;;;;5022235;28;20044;-73
2023/01/17 15:01:11;;;;;;;15.10;4.93;;;;;;;;;;5037597;28;20106;-73
2023/01/17 15:03:53;;;;;;;9.90;4.30;;;;;;;;;;5050266;28;20045;-73
2023/01/17 15:06:21;;;;;;;10.93;4.22;;;;;;;;;;5031014;28;20033;-74
2023/01/17 15:08:47;;;;;;;9.02;4.30;;;;;;;;;;5044287;28;20038;-74
2023/01/17 15:11:19;;;;;;;11.63;5.13;;;;;;;;;;5049276;28;20044;-73
2023/01/17 15:13:48;;;;;;;12.48;5.28;;;;;;;;;;5037674;28;20040;-73
2023/01/17 15:16:23;;;;;;;11.00;4.45;;;;;;;;;;5034208;28;20044;-74
2023/01/17 15:18:49;;;;;;;9.48;4.38;;;;;;;;;;5036460;28;20515;-73
2023/01/17 15:21:18;;;;;;;7.55;3.88;;;;;;;;;;5043183;28;20484;-73
2023/01/17 15:23:47;;;;;;;8.75;3.40;;;;;;;;;;5029794;28;20362;-73
2023/01/17 15:26:14;;;;;;;10.10;4.38;;;;;;;;;;5041462;28;20037;-74
2023/01/17 15:28:40;;;;;;;8.55;4.15;;;;;;;;;;5033828;28;20456;-74
2023/01/17 15:31:16;;;;;;;11.48;3.92;;;;;;;;;;5045923;28;20029;-74
2023/01/17 15:33:46;;;;;;;10.70;3.50;;;;;;;;;;5041209;28;20072;-74
2023/01/17 15:36:33;;;;;;;7.57;3.25;;;;;;;;;;5038547;28;20029;-75
2023/01/17 15:39:32;;;;;;;7.93;3.75;;;;;;;;;;5032946;28;20393;-74
2023/01/17 15:42:00;;;;;;;7.28;3.15;;;;;;;;;;5045344;28;20044;-73
2023/01/17 15:44:28;;;;;;;7.47;3.55;;;;;;;;;;5048776;28;20037;-73
2023/01/17 15:46:54;;;;;;;12.43;3.45;;;;;;;;;;5044915;28;20036;-74
2023/01/17 15:49:23;;;;;;;7.35;2.70;;;;;;;;;;5029098;28;20390;-74
2023/01/17 15:51:54;;;;;;;6.63;2.60;;;;;;;;;;5030630;28;20033;-73
2023/01/17 15:54:49;;;;;;;4.30;2.13;;;;;;;;;;5034565;28;20159;-74
2023/01/17 15:57:35;;;;;;;4.60;1.80;;;;;;;;;;5036471;28;20091;-74
2023/01/17 16:00:12;;;;;;;3.42;1.70;;;;;;;;;;5038049;28;20037;-73
2023/01/17 16:02:41;;;;;;;2.67;1.30;;;;;;;;;;5038825;28;20029;-73
2023/01/17 16:05:22;;;;;;;2.13;1.17;;;;;;;;;;5039906;28;20025;-73
2023/01/17 16:07:55;;;;;;;2.63;1.30;;;;;;;;;;5051726;28;20041;-76
2023/01/17 16:10:34;;;;;;;1.92;1.08;;;;;;;;;;5039291;28;20301;-74
2023/01/17 16:13:00;;;;;;;2.72;1.20;;;;;;;;;;5026710;28;20459;-73
2023/01/17 16:15:26;;;;;;;6.65;1.92;;;;;;;;;;5038333;28;20032;-73
2023/01/17 16:17:57;;;;;;;4.30;2.15;;;;;;;;;;5035723;28;20419;-73
2023/01/17 16:20:27;;;;;;;3.20;1.33;;;;;;;;;;5031624;28;20384;-73
2023/01/17 16:22:52;;;;;;;3.22;1.70;;;;;;;;;;5044897;28;20115;-73
2023/01/17 16:25:20;;;;;;;4.55;1.58;;;;;;;;;;5039034;28;20152;-73
2023/01/17 16:27:46;;;;;;;4.47;1.63;;;;;;;;;;5032975;28;20061;-73
2023/01/17 16:30:16;;;;;;;5.10;2.83;;;;;;;;;;5036918;28;20534;-73
2023/01/17 16:32:45;;;;;;;5.03;2.38;;;;;;;;;;5028627;28;20045;-73